Latest Weather Observations for Kuitpo

IDS60901

Issued at 10:21 am CST Tuesday 18 June 2019 (issued every 10 minutes, with the page automatically refreshed every 10 minutes)

About weather observations | Map of Adelaide area stations | Latest observations for Adelaide area | Other Formats
Station Details ID: 023887 Name: KUITPO FOREST RESERVE Lat: -35.17 Lon: 138.68 Height: 365.0 m
Data from the previous 72 hours. | See also: Recent months at Kuitpo
Date/Time
CST
Temp
°C
App
Temp
°C
Dew
Point
°C
Rel
Hum
%
Delta-T
°C
Wind Press
QNH
hPa
Press
MSL
hPa
Rain since
9am
mm
Dir  Spd
km/h
Gust
km/h
Spd
kts
Gust
kts
18/10:00am 8.7 5.8 4.7 76 1.8 WSW 9 11 5 6 1022.8 1023.0 0.0
18/09:30am 7.9 4.6 4.3 78 1.6 W 11 15 6 8 1022.5 1022.7 0.0
18/09:00am 7.1 3.7 4.1 81 1.3 SW 11 17 6 9 1022.1 1022.3 6.4
18/08:30am 6.6 2.8 3.8 82 1.2 SW 13 19 7 10 1021.5 1021.8 6.4
18/08:00am 6.2 1.5 3.4 82 1.2 SW 17 28 9 15 1021.0 1021.2 6.2
18/07:30am 6.2 1.3 4.0 86 1.0 SW 19 33 10 18 1020.8 1021.0 6.2
18/07:00am 5.8 1.6 4.0 88 0.8 WSW 15 24 8 13 1020.2 1020.4 6.2
18/06:30am 6.4 1.3 4.2 86 1.0 SW 20 32 11 17 1019.7 1019.9 6.2
18/06:00am 6.6 2.2 4.9 89 0.8 SW 17 28 9 15 1019.5 1019.7 6.2
18/05:30am 6.5 2.5 5.1 91 0.6 SW 15 22 8 12 1019.2 1019.4 6.2
18/05:00am 6.5 2.1 4.7 88 0.8 WSW 17 30 9 16 1018.8 1019.1 6.2
18/04:30am 6.7 2.3 4.9 88 0.8 SW 17 30 9 16 1018.8 1019.1 6.2
18/04:00am 7.1 2.5 5.4 89 0.8 SW 19 28 10 15 1018.6 1018.8 6.2
18/03:30am 7.2 3.4 5.8 91 0.6 SW 15 20 8 11 1018.5 1018.7 6.2
18/03:00am 7.2 3.0 5.7 90 0.7 SW 17 26 9 14 1018.6 1018.8 6.2
18/02:30am 7.6 3.5 6.2 91 0.6 SW 17 26 9 14 1018.4 1018.6 6.2
18/02:00am 7.9 3.4 6.0 88 0.9 SW 19 30 10 16 1018.1 1018.3 6.2
18/01:30am 8.1 3.0 6.1 87 0.9 WSW 22 39 12 21 1017.8 1018.0 6.2
18/01:00am 8.3 3.6 7.7 96 0.3 WSW 22 33 12 18 1017.5 1017.7 6.2
18/12:30am 9.0 5.0 9.0 100 0.0 WSW 20 32 11 17 1017.4 1017.6 6.2
18/12:00am 9.2 5.4 9.2 100 0.0 WSW 19 30 10 16 1017.3 1017.5 6.2
 
Date/Time
CST
Temp
°C
App
Temp
°C
Dew
Point
°C
Rel
Hum
%
Delta-T
°C
Wind Press
QNH
hPa
Press
MSL
hPa
Rain since
9am
mm
Dir  Spd
km/h
Gust
km/h
Spd
kts
Gust
kts
17/11:30pm 9.0 4.6 8.9 99 0.0 WSW 22 41 12 22 1017.1 1017.3 6.2
17/11:06pm 9.4 3.9 9.3 99 0.1 WNW 28 48 15 26 1016.4 1016.5 5.6
17/11:00pm 9.7 5.1 9.6 99 0.1 NW 24 44 13 24 1016.6 1016.8 5.2
17/10:30pm 9.1 5.6 8.8 98 0.1 NNW 17 26 9 14 1016.6 1016.8 3.0
17/10:00pm 9.2 5.6 8.3 94 0.4 NNW 17 28 9 15 1016.9 1017.1 0.6
17/09:30pm 9.7 5.3 7.6 87 1.0 NNW 20 35 11 19 1016.9 1017.1 0.0
17/09:00pm 9.6 5.4 7.5 87 1.0 NNW 19 35 10 19 1017.1 1017.3 0.0
17/08:30pm 9.7 5.5 7.3 85 1.2 NNW 19 28 10 15 1017.3 1017.5 0.0
17/08:00pm 9.6 5.2 7.2 85 1.2 NNW 20 32 11 17 1017.3 1017.5 0.0
17/07:30pm 9.7 5.4 7.1 84 1.3 NNW 19 35 10 19 1017.6 1017.8 0.0
17/06:30pm 9.7 6.7 7.6 87 1.0 N 13 - 7 - - 1017.8 -
17/06:00pm 9.9 6.5 7.8 87 1.0 NNW 15 - 8 - - 1017.8 -
17/05:30pm 9.9 6.1 7.7 86 1.1 NW 17 24 9 13 1017.7 1017.9 0.0
17/05:00pm 10.0 5.8 7.3 83 1.3 NW 19 28 10 15 1017.7 1017.9 0.0
17/04:30pm 10.1 6.3 7.7 85 1.2 NNW 17 24 9 13 1017.7 1017.9 0.0
17/04:00pm 10.3 6.7 8.4 88 0.9 NW 17 24 9 13 1017.8 1018.0 0.0
17/03:30pm 10.3 6.3 8.4 88 0.9 NNW 19 30 10 16 1018.0 1018.2 0.0
17/03:00pm 10.5 6.3 8.4 87 1.0 NW 20 32 11 17 1018.1 1018.3 0.0
17/02:30pm 11.1 7.0 8.0 81 1.5 NNW 19 30 10 16 1018.0 1018.2 0.0
17/02:00pm 10.9 6.8 8.0 82 1.4 NW 19 30 10 16 1018.2 1018.4 0.0
17/01:30pm 10.7 6.4 7.8 82 1.4 NW 20 33 11 18 1018.5 1018.7 0.0
17/01:00pm 10.9 6.8 8.7 86 1.1 NW 20 32 11 17 1018.7 1018.9 0.0
17/12:30pm 10.3 6.3 8.9 91 0.7 NW 20 33 11 18 1019.2 1019.4 0.0
17/12:00pm 9.5 6.0 8.9 96 0.3 NW 17 30 9 16 1019.7 1019.9 0.0
17/11:30am 9.3 6.5 8.7 96 0.3 NW 13 24 7 13 1020.0 1020.2 0.0
17/11:00am 9.1 6.7 8.5 96 0.3 NNW 11 20 6 11 1020.4 1020.6 0.0
17/10:30am 8.8 5.5 8.0 95 0.4 NW 15 24 8 13 1020.6 1020.8 0.0
17/10:00am 9.3 6.5 8.5 95 0.4 NNW 13 22 7 12 1020.6 1020.8 0.0
17/09:30am 9.5 5.8 7.9 90 0.8 NNW 17 30 9 16 1020.4 1020.6 0.0
17/09:00am 9.7 6.9 7.1 84 1.2 N 11 20 6 11 1020.3 1020.5 0.2
17/08:30am 8.9 5.5 6.0 82 1.4 N 13 20 7 11 1020.3 1020.5 0.2
17/08:00am 7.7 4.2 5.5 86 1.0 N 13 19 7 10 1020.3 1020.5 0.2
17/07:30am 7.5 3.9 5.0 84 1.1 N 13 20 7 11 1020.3 1020.5 0.0
17/07:00am 7.6 3.9 4.7 82 1.3 N 13 20 7 11 1020.1 1020.3 0.0
17/06:30am 7.7 4.1 4.8 82 1.3 N 13 20 7 11 1020.0 1020.2 0.0
17/06:00am 7.8 4.6 4.9 82 1.3 NNW 11 19 6 10 1020.0 1020.2 0.0
17/05:30am 7.7 4.4 4.8 82 1.3 N 11 17 6 9 1019.8 1020.0 0.0
17/05:00am 8.1 4.9 5.0 81 1.4 N 11 22 6 12 1019.9 1020.1 0.0
17/04:30am 8.1 4.9 5.0 81 1.4 N 11 19 6 10 1020.0 1020.2 0.0
17/04:00am 8.2 5.0 5.1 81 1.4 N 11 19 6 10 1020.1 1020.3 0.0
17/03:30am 8.1 4.9 5.2 82 1.3 N 11 19 6 10 1020.4 1020.6 0.0
17/03:00am 8.6 5.1 5.4 80 1.5 NNW 13 19 7 10 1020.7 1020.9 0.0
17/02:30am 8.2 5.0 5.1 81 1.4 NNW 11 15 6 8 1020.7 1020.9 0.0
17/02:00am 8.3 4.7 5.2 81 1.4 NNW 13 17 7 9 1020.8 1021.0 0.0
17/01:30am 8.5 5.4 5.4 81 1.4 NNW 11 17 6 9 1020.7 1020.9 0.0
17/01:00am 8.7 5.5 5.3 79 1.6 NNW 11 17 6 9 1021.1 1021.3 0.0
17/12:30am 8.7 5.5 5.3 79 1.6 NNW 11 15 6 8 1021.3 1021.6 0.0
17/12:00am 8.5 5.3 5.3 80 1.5 NNW 11 17 6 9 1021.6 1021.9 0.0
 
Date/Time
CST
Temp
°C
App
Temp
°C
Dew
Point
°C
Rel
Hum
%
Delta-T
°C
Wind Press
QNH
hPa
Press
MSL
hPa
Rain since
9am
mm
Dir  Spd
km/h
Gust
km/h
Spd
kts
Gust
kts
16/11:30pm 8.1 5.7 5.4 83 1.2 N 7 13 4 7 1021.7 1022.0 0.0
16/11:00pm 8.3 5.6 5.8 84 1.2 NNE 9 11 5 6 1021.6 1021.9 0.0
16/10:30pm 8.2 5.1 5.7 84 1.1 NNE 11 13 6 7 1021.6 1021.9 0.0
16/10:00pm 8.1 5.0 5.6 84 1.1 NNE 11 15 6 8 1021.6 1021.9 0.0
16/09:30pm 8.2 5.1 5.5 83 1.2 NNE 11 13 6 7 1021.6 1021.9 0.0
16/09:00pm 8.3 5.2 5.6 83 1.2 NNE 11 13 6 7 1021.7 1022.0 0.0
16/08:30pm 8.2 5.4 5.3 82 1.3 NNE 9 13 5 7 1021.6 1021.9 0.0
16/08:00pm 8.6 5.6 5.9 83 1.3 NE 11 13 6 7 1021.5 1021.8 0.0
16/07:30pm 9.1 6.9 6.0 81 1.4 NE 7 9 4 5 1021.4 1021.7 0.0
16/07:00pm 9.5 7.5 6.2 80 1.6 N 6 7 3 4 1021.1 1021.3 0.0
16/06:30pm 9.8 7.8 6.2 78 1.7 NNE 6 7 3 4 1020.9 1021.1 0.0
16/06:00pm 10.6 8.4 6.0 73 2.2 NNW 7 9 4 5 1020.9 1021.1 0.0
16/05:30pm 10.9 8.7 6.1 72 2.3 NW 7 11 4 6 1020.7 1020.9 0.0
16/05:00pm 11.6 9.0 6.1 69 2.6 NW 9 11 5 6 1020.6 1020.8 0.0
16/04:30pm 12.7 10.1 6.3 65 3.1 NW 9 13 5 7 1020.4 1020.6 0.0
16/04:00pm 13.3 10.7 6.2 62 3.4 NNW 9 13 5 7 1020.2 1020.4 0.0
16/03:30pm 13.4 10.4 5.8 60 3.7 WNW 11 19 6 10 1020.3 1020.5 0.0
16/03:00pm 13.9 11.5 7.2 64 3.3 NW 9 13 5 7 1020.0 1020.2 0.0
16/02:30pm 13.8 10.8 6.2 60 3.7 NW 11 17 6 9 1019.8 1020.0 0.0
16/02:00pm 13.5 10.3 6.8 64 3.3 WNW 13 20 7 11 1019.8 1020.0 0.0
16/01:30pm 13.4 9.7 6.5 63 3.4 WNW 15 22 8 12 1019.9 1020.1 0.0
16/01:00pm 13.1 9.0 6.0 62 3.4 WNW 17 24 9 13 1020.0 1020.2 0.0
16/12:30pm 12.9 8.4 6.3 64 3.2 NW 19 24 10 13 1020.2 1020.4 0.0
16/12:00pm 13.5 10.4 7.3 66 3.1 WNW 13 19 7 10 1020.4 1020.6 0.0
16/11:30am 13.0 10.2 7.0 67 2.9 WNW 11 19 6 10 1020.6 1020.8 0.0
16/11:00am 12.7 9.2 7.0 68 2.8 WNW 15 22 8 12 1020.8 1021.0 0.0
16/10:30am 13.0 11.0 7.0 67 2.9 NNW 7 13 4 7 1020.9 1021.1 0.0
16/10:00am 12.7 10.0 7.2 69 2.7 NNW 11 15 6 8 1020.9 1021.1 0.0
16/09:30am 11.9 8.5 6.0 67 2.8 NNW 13 20 7 11 1020.6 1020.8 0.0
16/09:00am 11.3 8.3 5.8 69 2.6 NNW 11 20 6 11 1020.4 1020.6 0.2
16/08:30am 10.4 7.6 5.2 70 2.4 N 9 13 5 7 1020.1 1020.3 0.2
16/08:00am 8.9 6.1 5.3 78 1.7 NNE 9 15 5 8 1019.6 1019.8 0.2
16/07:30am 8.5 5.0 5.3 80 1.5 NNE 13 19 7 10 1019.2 1019.4 0.2
16/07:00am 8.5 5.3 5.3 80 1.5 NNE 11 15 6 8 1018.9 1019.2 0.2
16/06:30am 8.5 5.4 5.4 81 1.4 NNE 11 19 6 10 1018.7 1018.9 0.2
16/06:00am 8.8 5.7 5.5 80 1.5 NNE 11 15 6 8 1018.4 1018.6 0.2
16/05:30am 9.2 6.2 5.8 79 1.6 NNE 11 20 6 11 1018.2 1018.4 0.2
16/05:00am 9.6 6.5 5.6 76 1.9 NNE 11 17 6 9 1018.1 1018.3 0.2
16/04:30am 9.7 6.7 5.9 77 1.8 N 11 17 6 9 1017.9 1018.1 0.2
16/04:00am 9.8 6.5 6.2 78 1.7 N 13 20 7 11 1017.9 1018.1 0.2
16/03:30am 9.4 6.5 6.3 81 1.5 N 11 20 6 11 1018.1 1018.3 0.2
16/03:00am 9.6 6.3 6.3 80 1.6 N 13 19 7 10 1018.0 1018.2 0.2
16/02:30am 9.8 6.9 6.5 80 1.6 NNE 11 13 6 7 1018.2 1018.4 0.2
16/02:00am 10.0 7.5 6.7 80 1.6 N 9 15 5 8 1018.2 1018.4 0.2
16/01:30am 10.0 7.1 6.3 78 1.8 N 11 17 6 9 1018.2 1018.4 0.2
16/01:00am 10.1 6.4 6.1 76 1.9 NNW 15 22 8 12 1018.2 1018.4 0.2
16/12:30am 10.1 7.0 5.7 74 2.1 NNW 11 19 6 10 1018.3 1018.5 0.2
16/12:00am 10.0 7.3 5.8 75 2.0 N 9 15 5 8 1018.4 1018.6 0.2
 
Date/Time
CST
Temp
°C
App
Temp
°C
Dew
Point
°C
Rel
Hum
%
Delta-T
°C
Wind Press
QNH
hPa
Press
MSL
hPa
Rain since
9am
mm
Dir  Spd
km/h
Gust
km/h
Spd
kts
Gust
kts
15/11:30pm 10.2 7.5 5.6 73 2.1 N 9 15 5 8 1018.5 1018.7 0.2
15/11:00pm 10.2 7.2 5.8 74 2.1 N 11 17 6 9 1018.5 1018.7 0.2
15/10:30pm 10.2 6.8 5.8 74 2.1 N 13 20 7 11 1018.6 1018.8 0.2
15/10:00pm 10.1 7.2 6.4 78 1.8 N 11 20 6 11 1018.7 1018.9 0.2
15/09:30pm 9.9 7.5 7.2 83 1.3 N 9 17 5 9 1018.8 1019.1 0.2
15/09:00pm 10.0 7.7 7.6 85 1.2 N 9 15 5 8 1018.9 1019.2 0.2
15/08:30pm 10.1 7.5 7.9 86 1.1 N 11 15 6 8 1019.1 1019.3 0.2
15/08:00pm 10.4 7.9 8.2 86 1.1 NNW 11 17 6 9 1019.1 1019.3 0.2
15/07:30pm 10.7 8.7 8.6 87 1.1 N 9 17 5 9 1018.9 1019.2 0.2
15/07:00pm 10.7 8.7 8.8 88 1.0 NNW 9 15 5 8 1018.9 1019.2 0.2
15/06:30pm 10.9 9.0 9.2 89 0.9 NNW 9 15 5 8 1018.8 1019.1 0.2
15/06:00pm 11.3 8.7 9.4 88 1.0 NNW 13 20 7 11 1018.8 1019.1 0.2
15/05:30pm 11.4 8.8 9.3 87 1.1 NW 13 24 7 13 1018.8 1019.1 0.2
15/05:00pm 11.4 8.8 9.5 88 1.0 NW 13 19 7 10 1018.6 1018.8 0.2
15/04:30pm 11.0 9.4 10.2 95 0.4 WNW 9 17 5 9 1018.6 1018.8 0.2
15/04:00pm 11.4 9.3 9.8 90 0.8 NW 11 19 6 10 1018.4 1018.6 0.2
15/03:30pm 11.8 9.4 10.0 89 0.9 NW 13 19 7 10 1018.5 1018.7 0.2
15/03:00pm 12.1 8.9 10.0 87 1.1 NW 17 28 9 15 1018.5 1018.7 0.2
15/02:30pm 12.1 9.3 10.0 87 1.1 NW 15 20 8 11 1018.5 1018.7 0.2
15/02:00pm 11.9 8.7 10.0 88 1.0 NW 17 26 9 14 1018.8 1019.1 0.2
15/01:30pm 12.0 9.3 10.4 90 0.8 NW 15 22 8 12 1019.1 1019.3 0.2
15/01:00pm 11.8 8.2 10.0 89 0.9 NW 19 24 10 13 1019.2 1019.4 0.2
15/12:30pm 11.8 10.0 10.7 93 0.6 NNW 11 20 6 11 1019.4 1019.6 0.2
15/12:00pm 11.6 9.4 10.8 95 0.4 NNW 13 19 7 10 1019.7 1019.9 0.2
15/11:30am 11.3 9.2 11.0 98 0.2 NNW 13 24 7 13 1020.1 1020.3 0.2
15/11:00am 10.9 7.8 10.4 97 0.3 NNW 17 28 9 15 1020.5 1020.7 0.2
15/10:30am 11.1 8.5 10.8 98 0.2 NNW 15 22 8 12 1020.5 1020.7 0.0

Latest Capital City Observations: Canberra | Sydney | Melbourne | Brisbane | Adelaide | Perth | Hobart | Darwin

Other formats

Comma delimited format used in spreadsheet applications
http://www.bom.gov.au/fwo/IDS60901/IDS60901.94683.axf

JavaScript Object Notation format (JSON) in row-major order
http://www.bom.gov.au/fwo/IDS60901/IDS60901.94683.json

Data quality

Most of these data are generated automatically and are frequently updated. Quality checks on data are not normally performed. It is possible for incorrect values to appear. Refer to information at About Latest Weather Observations and please check the disclaimer before using these data.